Clements, California
Current Conditions -  °F | °C
As of 1:55 PM on Thursday 27 Nov 2014 (Local Time) from KSCK Reporting Station
Haze Haze  
Wind Chill: 69°   Ceiling: Unl
Heat Index: 69°   Visibility: 4mi
Dew Point: 48°   Wind: 5mph
Humidity: 47%   Direction: NA
Pressure: 30.09"   Gusts: NA
Location:  38.19°N, 121.09°W
Report Text: KSCK 272155Z VRB04KT 4SM HZ CLR 21/09 A3009 RMK AO2 SLP188 T02060089
Loading
Personal Weather Stations






























Interactive Weather Map New forecast layout! Learn more

10-Day Weather Forecast

Advertisements
Track Severe Weather on mobile